KDCA

Ronald Reagan Washington National

Airport
ICAO code
KDCA
IATA Code
DCA
Summary
ICAO Region
NAM
ICAO Territory
Location

Washington, D.C., Arlington County, Virginia, District of Colombia

Serving
Washington D.C.
Elevation
15 ft
Coordinates
38° 51' 7" N , 77° 2' 15" W
KCC
Metar
Observation
KDCA 081952Z 36005KT 10SM SCT043 OVC180 14/04 A3023 RMK AO2 SLP238 T01390044
Station
Washington DC, Reagan National Airport
Date/Time
2022-12-08 19:52:00
Wind direction
360°
Wind speed
05 kts
Lowest cloud amount
scattered clouds
Temperature
13.9°C
Dew point
4.4°C
Humidity
52%
Weather condition
n/a

Description

Ronald Reagan Washington National Airport (IATA: DCA) is a public airport located 4.8 km south of downtown Washington, D.C., in Arlington County, Virginia.

Climatology

Humid “subtropical” climate (Köppen climate classification Cfa) - characterized by hot, humid summers and cool winters. Significant amounts of precipitation occur in all seasons in most areas. Winter rainfall (and sometimes snowfall) is associated with large storms that the westerlies steer from west to east. Most summer rainfall occurs during thunderstorms and occasional tropical storms (hurricanes).

Airport map

Aerial View

SKYbrary Partners:

Safety knowledge contributed by: